sensor_id;sensor_type;location;lat;lon;timestamp;P1;durP1;ratioP1;P2;durP2;ratioP2
51382;SDS011;37475;43.358;1.248;2022-10-23T00:04:03;13.77;;;4.30;;
51382;SDS011;37475;43.358;1.248;2022-10-23T00:06:32;11.05;;;4.30;;
51382;SDS011;37475;43.358;1.248;2022-10-23T00:08:58;15.15;;;4.18;;
51382;SDS011;37475;43.358;1.248;2022-10-23T00:11:26;12.57;;;3.85;;
51382;SDS011;37475;43.358;1.248;2022-10-23T00:13:55;13.35;;;3.80;;
51382;SDS011;37475;43.358;1.248;2022-10-23T00:16:24;10.38;;;3.75;;
51382;SDS011;37475;43.358;1.248;2022-10-23T00:18:51;12.25;;;4.03;;
51382;SDS011;37475;43.358;1.248;2022-10-23T00:21:17;12.98;;;3.85;;
51382;SDS011;37475;43.358;1.248;2022-10-23T00:23:43;11.10;;;3.75;;
51382;SDS011;37475;43.358;1.248;2022-10-23T00:26:10;15.73;;;4.20;;
51382;SDS011;37475;43.358;1.248;2022-10-23T00:28:39;11.65;;;4.18;;
51382;SDS011;37475;43.358;1.248;2022-10-23T00:31:11;13.23;;;3.60;;
51382;SDS011;37475;43.358;1.248;2022-10-23T00:33:37;8.85;;;3.78;;
51382;SDS011;37475;43.358;1.248;2022-10-23T00:36:04;6.75;;;3.35;;
51382;SDS011;37475;43.358;1.248;2022-10-23T00:38:31;11.05;;;3.80;;
51382;SDS011;37475;43.358;1.248;2022-10-23T00:40:58;8.82;;;3.45;;
51382;SDS011;37475;43.358;1.248;2022-10-23T00:43:25;17.65;;;4.00;;
51382;SDS011;37475;43.358;1.248;2022-10-23T00:45:54;9.73;;;3.67;;
51382;SDS011;37475;43.358;1.248;2022-10-23T00:48:20;9.27;;;4.00;;
51382;SDS011;37475;43.358;1.248;2022-10-23T00:50:47;8.90;;;3.80;;
51382;SDS011;37475;43.358;1.248;2022-10-23T00:53:13;12.07;;;3.90;;
51382;SDS011;37475;43.358;1.248;2022-10-23T00:55:41;12.02;;;3.90;;
51382;SDS011;37475;43.358;1.248;2022-10-23T00:58:14;11.45;;;3.92;;
51382;SDS011;37475;43.358;1.248;2022-10-23T01:00:44;12.23;;;4.00;;
51382;SDS011;37475;43.358;1.248;2022-10-23T01:03:17;12.00;;;4.10;;
51382;SDS011;37475;43.358;1.248;2022-10-23T01:11:21;10.85;;;3.85;;
51382;SDS011;37475;43.358;1.248;2022-10-23T01:14:18;11.13;;;3.67;;
51382;SDS011;37475;43.358;1.248;2022-10-23T01:17:09;11.70;;;3.40;;
51382;SDS011;37475;43.358;1.248;2022-10-23T01:20:00;9.73;;;3.53;;
51382;SDS011;37475;43.358;1.248;2022-10-23T01:28:55;9.85;;;3.25;;
51382;SDS011;37475;43.358;1.248;2022-10-23T01:31:48;14.55;;;3.72;;
51382;SDS011;37475;43.358;1.248;2022-10-23T01:34:29;11.93;;;3.40;;
51382;SDS011;37475;43.358;1.248;2022-10-23T01:37:10;13.88;;;3.63;;
51382;SDS011;37475;43.358;1.248;2022-10-23T01:39:40;9.90;;;3.63;;
51382;SDS011;37475;43.358;1.248;2022-10-23T01:44:44;11.68;;;3.35;;
51382;SDS011;37475;43.358;1.248;2022-10-23T01:47:23;13.00;;;3.38;;
51382;SDS011;37475;43.358;1.248;2022-10-23T01:49:52;10.85;;;3.63;;
51382;SDS011;37475;43.358;1.248;2022-10-23T01:52:22;10.25;;;3.15;;
51382;SDS011;37475;43.358;1.248;2022-10-23T01:54:49;12.80;;;3.63;;
51382;SDS011;37475;43.358;1.248;2022-10-23T01:57:17;12.85;;;3.63;;
51382;SDS011;37475;43.358;1.248;2022-10-23T01:59:48;14.60;;;3.50;;
51382;SDS011;37475;43.358;1.248;2022-10-23T02:02:22;13.80;;;3.35;;
51382;SDS011;37475;43.358;1.248;2022-10-23T02:07:23;12.32;;;3.22;;
51382;SDS011;37475;43.358;1.248;2022-10-23T02:09:49;10.85;;;3.28;;
51382;SDS011;37475;43.358;1.248;2022-10-23T02:12:25;10.57;;;3.40;;
51382;SDS011;37475;43.358;1.248;2022-10-23T02:21:37;11.65;;;3.33;;
51382;SDS011;37475;43.358;1.248;2022-10-23T02:24:10;11.60;;;3.30;;
51382;SDS011;37475;43.358;1.248;2022-10-23T02:26:42;14.05;;;3.38;;
51382;SDS011;37475;43.358;1.248;2022-10-23T02:29:37;12.98;;;3.15;;
51382;SDS011;37475;43.358;1.248;2022-10-23T02:32:10;11.43;;;2.90;;
51382;SDS011;37475;43.358;1.248;2022-10-23T02:34:37;11.10;;;3.65;;
51382;SDS011;37475;43.358;1.248;2022-10-23T02:37:03;11.65;;;3.50;;
51382;SDS011;37475;43.358;1.248;2022-10-23T02:39:28;11.73;;;3.33;;
51382;SDS011;37475;43.358;1.248;2022-10-23T02:47:40;12.75;;;3.40;;
51382;SDS011;37475;43.358;1.248;2022-10-23T02:58:13;10.32;;;3.58;;
51382;SDS011;37475;43.358;1.248;2022-10-23T03:01:08;11.88;;;3.85;;
51382;SDS011;37475;43.358;1.248;2022-10-23T03:03:39;12.77;;;3.30;;
51382;SDS011;37475;43.358;1.248;2022-10-23T03:06:10;13.30;;;4.00;;
51382;SDS011;37475;43.358;1.248;2022-10-23T03:08:40;13.35;;;3.67;;
51382;SDS011;37475;43.358;1.248;2022-10-23T03:11:13;14.32;;;3.63;;
51382;SDS011;37475;43.358;1.248;2022-10-23T03:13:39;13.68;;;3.72;;
51382;SDS011;37475;43.358;1.248;2022-10-23T03:16:05;9.57;;;3.25;;
51382;SDS011;37475;43.358;1.248;2022-10-23T03:18:31;13.60;;;3.85;;
51382;SDS011;37475;43.358;1.248;2022-10-23T03:20:57;14.52;;;3.78;;
51382;SDS011;37475;43.358;1.248;2022-10-23T03:23:22;12.20;;;3.35;;
51382;SDS011;37475;43.358;1.248;2022-10-23T03:25:48;10.27;;;3.20;;
51382;SDS011;37475;43.358;1.248;2022-10-23T03:28:14;12.88;;;3.55;;
51382;SDS011;37475;43.358;1.248;2022-10-23T03:30:40;15.68;;;4.22;;
51382;SDS011;37475;43.358;1.248;2022-10-23T03:33:05;13.52;;;3.45;;
51382;SDS011;37475;43.358;1.248;2022-10-23T03:35:31;8.95;;;3.35;;
51382;SDS011;37475;43.358;1.248;2022-10-23T03:37:57;13.73;;;3.67;;
51382;SDS011;37475;43.358;1.248;2022-10-23T03:40:23;15.05;;;3.42;;
51382;SDS011;37475;43.358;1.248;2022-10-23T03:42:49;12.73;;;3.35;;
51382;SDS011;37475;43.358;1.248;2022-10-23T03:45:14;18.58;;;3.90;;
51382;SDS011;37475;43.358;1.248;2022-10-23T03:47:40;16.38;;;3.65;;
51382;SDS011;37475;43.358;1.248;2022-10-23T03:50:07;11.73;;;3.58;;
51382;SDS011;37475;43.358;1.248;2022-10-23T03:52:34;14.68;;;3.70;;
51382;SDS011;37475;43.358;1.248;2022-10-23T03:55:00;10.60;;;3.67;;
51382;SDS011;37475;43.358;1.248;2022-10-23T03:57:26;19.60;;;3.70;;
51382;SDS011;37475;43.358;1.248;2022-10-23T03:59:52;10.18;;;3.40;;
51382;SDS011;37475;43.358;1.248;2022-10-23T04:02:17;12.52;;;3.83;;
51382;SDS011;37475;43.358;1.248;2022-10-23T04:04:43;13.90;;;4.10;;
51382;SDS011;37475;43.358;1.248;2022-10-23T04:07:09;11.43;;;3.65;;
51382;SDS011;37475;43.358;1.248;2022-10-23T04:09:35;11.82;;;3.53;;
51382;SDS011;37475;43.358;1.248;2022-10-23T04:12:01;14.30;;;4.07;;
51382;SDS011;37475;43.358;1.248;2022-10-23T04:14:27;16.50;;;4.20;;
51382;SDS011;37475;43.358;1.248;2022-10-23T04:16:52;12.95;;;3.95;;
51382;SDS011;37475;43.358;1.248;2022-10-23T04:19:18;12.00;;;3.47;;
51382;SDS011;37475;43.358;1.248;2022-10-23T04:21:44;14.85;;;3.80;;
51382;SDS011;37475;43.358;1.248;2022-10-23T04:24:10;15.10;;;3.75;;
51382;SDS011;37475;43.358;1.248;2022-10-23T04:26:36;13.15;;;3.25;;
51382;SDS011;37475;43.358;1.248;2022-10-23T04:29:02;12.13;;;3.35;;
51382;SDS011;37475;43.358;1.248;2022-10-23T04:31:27;11.88;;;3.25;;
51382;SDS011;37475;43.358;1.248;2022-10-23T04:33:53;14.57;;;3.88;;
51382;SDS011;37475;43.358;1.248;2022-10-23T04:36:19;10.77;;;3.38;;
51382;SDS011;37475;43.358;1.248;2022-10-23T04:38:45;17.15;;;3.90;;
51382;SDS011;37475;43.358;1.248;2022-10-23T04:41:11;11.75;;;3.58;;
51382;SDS011;37475;43.358;1.248;2022-10-23T04:43:37;15.90;;;4.50;;
51382;SDS011;37475;43.358;1.248;2022-10-23T04:46:03;12.82;;;3.45;;
51382;SDS011;37475;43.358;1.248;2022-10-23T04:48:30;14.73;;;3.22;;
51382;SDS011;37475;43.358;1.248;2022-10-23T04:50:56;15.15;;;3.40;;
51382;SDS011;37475;43.358;1.248;2022-10-23T04:53:25;14.25;;;3.33;;
51382;SDS011;37475;43.358;1.248;2022-10-23T04:55:52;12.93;;;3.42;;
51382;SDS011;37475;43.358;1.248;2022-10-23T04:58:20;12.15;;;3.45;;
51382;SDS011;37475;43.358;1.248;2022-10-23T05:00:48;13.68;;;3.30;;
51382;SDS011;37475;43.358;1.248;2022-10-23T05:03:15;12.13;;;3.10;;
51382;SDS011;37475;43.358;1.248;2022-10-23T05:05:42;10.32;;;3.15;;
51382;SDS011;37475;43.358;1.248;2022-10-23T05:08:08;11.05;;;2.63;;
51382;SDS011;37475;43.358;1.248;2022-10-23T05:10:35;12.38;;;3.10;;
51382;SDS011;37475;43.358;1.248;2022-10-23T05:13:02;10.45;;;3.08;;
51382;SDS011;37475;43.358;1.248;2022-10-23T05:15:28;13.43;;;3.30;;
51382;SDS011;37475;43.358;1.248;2022-10-23T05:17:55;10.18;;;3.63;;
51382;SDS011;37475;43.358;1.248;2022-10-23T05:20:28;10.05;;;3.28;;
51382;SDS011;37475;43.358;1.248;2022-10-23T05:22:58;11.50;;;3.35;;
51382;SDS011;37475;43.358;1.248;2022-10-23T05:25:26;14.55;;;3.72;;
51382;SDS011;37475;43.358;1.248;2022-10-23T05:27:54;16.80;;;3.67;;
51382;SDS011;37475;43.358;1.248;2022-10-23T05:30:20;9.23;;;3.25;;
51382;SDS011;37475;43.358;1.248;2022-10-23T05:32:46;17.00;;;3.75;;
51382;SDS011;37475;43.358;1.248;2022-10-23T05:35:16;14.48;;;3.60;;
51382;SDS011;37475;43.358;1.248;2022-10-23T05:37:46;12.77;;;3.42;;
51382;SDS011;37475;43.358;1.248;2022-10-23T05:40:15;11.27;;;3.25;;
51382;SDS011;37475;43.358;1.248;2022-10-23T05:42:41;11.57;;;3.40;;
51382;SDS011;37475;43.358;1.248;2022-10-23T05:45:07;16.88;;;5.97;;
51382;SDS011;37475;43.358;1.248;2022-10-23T05:47:34;13.60;;;3.17;;
51382;SDS011;37475;43.358;1.248;2022-10-23T05:50:00;12.90;;;3.40;;
51382;SDS011;37475;43.358;1.248;2022-10-23T05:52:26;12.18;;;3.65;;
51382;SDS011;37475;43.358;1.248;2022-10-23T05:54:51;11.18;;;3.97;;
51382;SDS011;37475;43.358;1.248;2022-10-23T05:57:17;13.57;;;3.75;;
51382;SDS011;37475;43.358;1.248;2022-10-23T05:59:43;14.50;;;3.40;;
51382;SDS011;37475;43.358;1.248;2022-10-23T06:02:09;12.43;;;3.50;;
51382;SDS011;37475;43.358;1.248;2022-10-23T06:04:35;16.67;;;3.95;;
51382;SDS011;37475;43.358;1.248;2022-10-23T06:07:01;15.48;;;3.72;;
51382;SDS011;37475;43.358;1.248;2022-10-23T06:09:27;14.15;;;3.35;;
51382;SDS011;37475;43.358;1.248;2022-10-23T06:11:54;15.52;;;3.17;;
51382;SDS011;37475;43.358;1.248;2022-10-23T06:14:20;13.43;;;3.70;;
51382;SDS011;37475;43.358;1.248;2022-10-23T06:16:46;15.77;;;2.95;;
51382;SDS011;37475;43.358;1.248;2022-10-23T06:19:12;13.95;;;3.40;;
51382;SDS011;37475;43.358;1.248;2022-10-23T06:21:38;15.18;;;3.58;;
51382;SDS011;37475;43.358;1.248;2022-10-23T06:24:06;13.70;;;3.10;;
51382;SDS011;37475;43.358;1.248;2022-10-23T06:26:32;15.77;;;2.95;;
51382;SDS011;37475;43.358;1.248;2022-10-23T06:28:58;13.68;;;3.00;;
51382;SDS011;37475;43.358;1.248;2022-10-23T06:31:24;11.13;;;3.08;;
51382;SDS011;37475;43.358;1.248;2022-10-23T06:33:55;13.82;;;3.35;;
51382;SDS011;37475;43.358;1.248;2022-10-23T06:36:22;12.90;;;3.15;;
51382;SDS011;37475;43.358;1.248;2022-10-23T06:38:49;10.20;;;3.17;;
51382;SDS011;37475;43.358;1.248;2022-10-23T06:41:17;14.30;;;3.28;;
51382;SDS011;37475;43.358;1.248;2022-10-23T06:43:49;15.00;;;3.92;;
51382;SDS011;37475;43.358;1.248;2022-10-23T06:46:16;12.70;;;3.50;;
51382;SDS011;37475;43.358;1.248;2022-10-23T06:48:43;12.55;;;3.30;;
51382;SDS011;37475;43.358;1.248;2022-10-23T06:51:10;13.05;;;3.60;;
51382;SDS011;37475;43.358;1.248;2022-10-23T06:53:38;12.10;;;3.60;;
51382;SDS011;37475;43.358;1.248;2022-10-23T06:56:05;15.45;;;3.22;;
51382;SDS011;37475;43.358;1.248;2022-10-23T06:58:32;15.05;;;3.88;;
51382;SDS011;37475;43.358;1.248;2022-10-23T07:01:00;13.50;;;3.42;;
51382;SDS011;37475;43.358;1.248;2022-10-23T07:03:28;15.93;;;3.33;;
51382;SDS011;37475;43.358;1.248;2022-10-23T07:05:54;10.82;;;3.38;;
51382;SDS011;37475;43.358;1.248;2022-10-23T07:08:23;13.18;;;4.03;;
51382;SDS011;37475;43.358;1.248;2022-10-23T07:10:49;17.40;;;4.38;;
51382;SDS011;37475;43.358;1.248;2022-10-23T07:13:15;19.33;;;5.43;;
51382;SDS011;37475;43.358;1.248;2022-10-23T07:15:41;18.63;;;4.30;;
51382;SDS011;37475;43.358;1.248;2022-10-23T07:18:08;26.63;;;7.13;;
51382;SDS011;37475;43.358;1.248;2022-10-23T07:20:38;19.20;;;5.32;;
51382;SDS011;37475;43.358;1.248;2022-10-23T07:23:08;15.82;;;3.90;;
51382;SDS011;37475;43.358;1.248;2022-10-23T07:25:36;14.93;;;2.92;;
51382;SDS011;37475;43.358;1.248;2022-10-23T07:28:02;18.45;;;3.00;;
51382;SDS011;37475;43.358;1.248;2022-10-23T07:30:29;15.57;;;3.22;;
51382;SDS011;37475;43.358;1.248;2022-10-23T07:32:55;12.15;;;3.42;;
51382;SDS011;37475;43.358;1.248;2022-10-23T07:35:21;18.75;;;3.03;;
51382;SDS011;37475;43.358;1.248;2022-10-23T07:37:47;15.77;;;3.75;;
51382;SDS011;37475;43.358;1.248;2022-10-23T07:40:13;19.60;;;5.35;;
51382;SDS011;37475;43.358;1.248;2022-10-23T07:42:39;18.52;;;4.18;;
51382;SDS011;37475;43.358;1.248;2022-10-23T07:45:05;11.75;;;3.90;;
51382;SDS011;37475;43.358;1.248;2022-10-23T07:47:32;13.13;;;3.33;;
51382;SDS011;37475;43.358;1.248;2022-10-23T07:49:58;14.63;;;3.72;;
51382;SDS011;37475;43.358;1.248;2022-10-23T07:52:24;12.50;;;3.22;;
51382;SDS011;37475;43.358;1.248;2022-10-23T07:54:51;11.55;;;2.75;;
51382;SDS011;37475;43.358;1.248;2022-10-23T07:57:17;22.10;;;3.60;;
51382;SDS011;37475;43.358;1.248;2022-10-23T07:59:43;18.02;;;3.22;;
51382;SDS011;37475;43.358;1.248;2022-10-23T08:02:10;12.95;;;3.50;;
51382;SDS011;37475;43.358;1.248;2022-10-23T08:04:40;12.18;;;3.03;;
51382;SDS011;37475;43.358;1.248;2022-10-23T08:07:06;13.48;;;2.97;;
51382;SDS011;37475;43.358;1.248;2022-10-23T08:09:32;11.02;;;2.70;;
51382;SDS011;37475;43.358;1.248;2022-10-23T08:11:59;17.42;;;3.25;;
51382;SDS011;37475;43.358;1.248;2022-10-23T08:14:26;17.58;;;3.10;;
51382;SDS011;37475;43.358;1.248;2022-10-23T08:16:52;9.98;;;3.33;;
51382;SDS011;37475;43.358;1.248;2022-10-23T08:19:18;13.45;;;3.25;;
51382;SDS011;37475;43.358;1.248;2022-10-23T08:21:44;12.90;;;3.42;;
51382;SDS011;37475;43.358;1.248;2022-10-23T08:24:10;17.10;;;3.78;;
51382;SDS011;37475;43.358;1.248;2022-10-23T08:26:39;11.05;;;3.22;;
51382;SDS011;37475;43.358;1.248;2022-10-23T08:29:05;14.13;;;3.47;;
51382;SDS011;37475;43.358;1.248;2022-10-23T08:31:30;19.42;;;3.75;;
51382;SDS011;37475;43.358;1.248;2022-10-23T08:33:56;15.30;;;4.03;;
51382;SDS011;37475;43.358;1.248;2022-10-23T08:36:26;13.45;;;3.42;;
51382;SDS011;37475;43.358;1.248;2022-10-23T08:38:53;16.17;;;3.83;;
51382;SDS011;37475;43.358;1.248;2022-10-23T08:41:32;13.15;;;3.85;;
51382;SDS011;37475;43.358;1.248;2022-10-23T08:49:46;11.68;;;3.05;;
51382;SDS011;37475;43.358;1.248;2022-10-23T08:52:23;16.27;;;3.42;;
51382;SDS011;37475;43.358;1.248;2022-10-23T09:00:32;14.75;;;2.80;;
51382;SDS011;37475;43.358;1.248;2022-10-23T09:03:03;16.00;;;3.22;;
51382;SDS011;37475;43.358;1.248;2022-10-23T09:05:48;14.40;;;3.10;;
51382;SDS011;37475;43.358;1.248;2022-10-23T09:08:45;12.50;;;2.80;;
51382;SDS011;37475;43.358;1.248;2022-10-23T09:12:23;16.80;;;3.60;;
51382;SDS011;37475;43.358;1.248;2022-10-23T09:14:39;11.93;;;3.08;;
51382;SDS011;37475;43.358;1.248;2022-10-23T09:17:33;11.70;;;3.10;;
51382;SDS011;37475;43.358;1.248;2022-10-23T09:22:54;12.13;;;2.92;;
51382;SDS011;37475;43.358;1.248;2022-10-23T09:25:27;14.88;;;2.67;;
51382;SDS011;37475;43.358;1.248;2022-10-23T09:27:59;14.77;;;2.60;;
51382;SDS011;37475;43.358;1.248;2022-10-23T09:35:59;9.15;;;2.00;;
51382;SDS011;37475;43.358;1.248;2022-10-23T09:38:32;10.35;;;1.98;;
51382;SDS011;37475;43.358;1.248;2022-10-23T09:41:11;7.38;;;1.88;;
51382;SDS011;37475;43.358;1.248;2022-10-23T09:43:43;12.57;;;1.92;;
51382;SDS011;37475;43.358;1.248;2022-10-23T09:46:10;15.35;;;2.25;;
51382;SDS011;37475;43.358;1.248;2022-10-23T09:48:37;9.75;;;1.70;;
51382;SDS011;37475;43.358;1.248;2022-10-23T09:51:16;6.85;;;1.65;;
51382;SDS011;37475;43.358;1.248;2022-10-23T09:53:55;7.85;;;2.00;;
51382;SDS011;37475;43.358;1.248;2022-10-23T09:58:55;7.72;;;1.75;;
51382;SDS011;37475;43.358;1.248;2022-10-23T10:01:48;11.27;;;1.70;;
51382;SDS011;37475;43.358;1.248;2022-10-23T10:04:34;8.85;;;1.92;;
51382;SDS011;37475;43.358;1.248;2022-10-23T10:07:05;11.50;;;1.80;;
51382;SDS011;37475;43.358;1.248;2022-10-23T10:09:47;6.53;;;1.40;;
51382;SDS011;37475;43.358;1.248;2022-10-23T10:12:28;8.35;;;1.50;;
51382;SDS011;37475;43.358;1.248;2022-10-23T10:32:15;7.97;;;1.23;;
51382;SDS011;37475;43.358;1.248;2022-10-23T10:34:50;9.32;;;0.95;;
51382;SDS011;37475;43.358;1.248;2022-10-23T10:40:37;5.22;;;1.30;;
51382;SDS011;37475;43.358;1.248;2022-10-23T10:45:56;5.00;;;0.80;;
51382;SDS011;37475;43.358;1.248;2022-10-23T10:48:55;6.00;;;0.98;;
51382;SDS011;37475;43.358;1.248;2022-10-23T10:51:54;5.82;;;1.08;;
51382;SDS011;37475;43.358;1.248;2022-10-23T10:57:58;5.18;;;0.80;;
51382;SDS011;37475;43.358;1.248;2022-10-23T11:00:54;3.72;;;1.10;;
51382;SDS011;37475;43.358;1.248;2022-10-23T11:03:40;5.50;;;0.90;;
51382;SDS011;37475;43.358;1.248;2022-10-23T11:06:15;4.63;;;0.80;;
51382;SDS011;37475;43.358;1.248;2022-10-23T11:08:45;9.25;;;0.88;;
51382;SDS011;37475;43.358;1.248;2022-10-23T11:14:13;3.95;;;0.85;;
51382;SDS011;37475;43.358;1.248;2022-10-23T11:16:41;3.47;;;0.73;;
51382;SDS011;37475;43.358;1.248;2022-10-23T11:19:29;3.08;;;0.80;;
51382;SDS011;37475;43.358;1.248;2022-10-23T11:22:20;7.68;;;1.10;;
51382;SDS011;37475;43.358;1.248;2022-10-23T11:30:18;2.50;;;0.50;;
51382;SDS011;37475;43.358;1.248;2022-10-23T11:39:15;8.95;;;0.98;;
51382;SDS011;37475;43.358;1.248;2022-10-23T11:44:24;4.15;;;1.10;;
51382;SDS011;37475;43.358;1.248;2022-10-23T11:47:04;5.00;;;0.88;;
51382;SDS011;37475;43.358;1.248;2022-10-23T11:49:50;3.65;;;0.77;;
51382;SDS011;37475;43.358;1.248;2022-10-23T11:52:21;7.35;;;0.75;;
51382;SDS011;37475;43.358;1.248;2022-10-23T11:54:59;7.05;;;1.27;;
51382;SDS011;37475;43.358;1.248;2022-10-23T12:00:48;7.32;;;1.00;;
51382;SDS011;37475;43.358;1.248;2022-10-23T12:03:24;5.90;;;0.95;;
51382;SDS011;37475;43.358;1.248;2022-10-23T12:06:20;8.20;;;1.00;;
51382;SDS011;37475;43.358;1.248;2022-10-23T12:08:54;8.13;;;0.98;;
51382;SDS011;37475;43.358;1.248;2022-10-23T12:11:26;9.02;;;0.93;;
51382;SDS011;37475;43.358;1.248;2022-10-23T12:14:28;6.20;;;1.30;;
51382;SDS011;37475;43.358;1.248;2022-10-23T12:19:48;4.90;;;0.82;;
51382;SDS011;37475;43.358;1.248;2022-10-23T12:22:20;4.75;;;1.13;;
51382;SDS011;37475;43.358;1.248;2022-10-23T12:27:40;4.95;;;1.00;;
51382;SDS011;37475;43.358;1.248;2022-10-23T12:30:29;3.85;;;0.77;;
51382;SDS011;37475;43.358;1.248;2022-10-23T12:33:50;2.95;;;0.77;;
51382;SDS011;37475;43.358;1.248;2022-10-23T12:39:24;2.67;;;0.93;;
51382;SDS011;37475;43.358;1.248;2022-10-23T12:42:01;3.45;;;0.93;;
51382;SDS011;37475;43.358;1.248;2022-10-23T12:44:29;3.58;;;0.80;;
51382;SDS011;37475;43.358;1.248;2022-10-23T12:46:56;6.00;;;0.80;;
51382;SDS011;37475;43.358;1.248;2022-10-23T12:49:26;5.28;;;0.70;;
51382;SDS011;37475;43.358;1.248;2022-10-23T12:54:30;3.92;;;0.95;;
51382;SDS011;37475;43.358;1.248;2022-10-23T12:56:57;6.30;;;1.10;;
51382;SDS011;37475;43.358;1.248;2022-10-23T12:59:30;8.25;;;0.90;;
51382;SDS011;37475;43.358;1.248;2022-10-23T13:02:12;8.00;;;1.00;;
51382;SDS011;37475;43.358;1.248;2022-10-23T13:04:50;6.40;;;0.80;;
51382;SDS011;37475;43.358;1.248;2022-10-23T13:07:20;7.55;;;1.02;;
51382;SDS011;37475;43.358;1.248;2022-10-23T13:09:50;5.78;;;1.10;;
51382;SDS011;37475;43.358;1.248;2022-10-23T13:12:21;6.20;;;1.10;;
51382;SDS011;37475;43.358;1.248;2022-10-23T13:17:36;8.13;;;1.60;;
51382;SDS011;37475;43.358;1.248;2022-10-23T13:22:48;8.48;;;1.45;;
51382;SDS011;37475;43.358;1.248;2022-10-23T13:25:30;6.55;;;1.20;;
51382;SDS011;37475;43.358;1.248;2022-10-23T13:30:35;12.75;;;1.38;;
51382;SDS011;37475;43.358;1.248;2022-10-23T13:33:13;9.52;;;1.40;;
51382;SDS011;37475;43.358;1.248;2022-10-23T13:35:42;5.45;;;1.20;;
51382;SDS011;37475;43.358;1.248;2022-10-23T13:38:38;8.00;;;1.85;;
51382;SDS011;37475;43.358;1.248;2022-10-23T13:41:25;6.25;;;1.27;;
51382;SDS011;37475;43.358;1.248;2022-10-23T13:43:53;6.88;;;1.23;;
51382;SDS011;37475;43.358;1.248;2022-10-23T13:46:20;8.48;;;1.77;;
51382;SDS011;37475;43.358;1.248;2022-10-23T13:48:49;8.27;;;1.60;;
51382;SDS011;37475;43.358;1.248;2022-10-23T13:51:17;9.70;;;1.77;;
51382;SDS011;37475;43.358;1.248;2022-10-23T13:53:46;9.25;;;1.80;;
51382;SDS011;37475;43.358;1.248;2022-10-23T13:56:14;12.02;;;1.58;;
51382;SDS011;37475;43.358;1.248;2022-10-23T13:58:42;9.85;;;1.70;;
51382;SDS011;37475;43.358;1.248;2022-10-23T14:01:50;8.55;;;1.77;;
51382;SDS011;37475;43.358;1.248;2022-10-23T14:04:00;9.18;;;1.83;;
51382;SDS011;37475;43.358;1.248;2022-10-23T14:06:28;10.38;;;1.75;;
51382;SDS011;37475;43.358;1.248;2022-10-23T14:08:55;8.45;;;1.67;;
51382;SDS011;37475;43.358;1.248;2022-10-23T14:11:21;7.82;;;1.88;;
51382;SDS011;37475;43.358;1.248;2022-10-23T14:13:48;7.97;;;1.52;;
51382;SDS011;37475;43.358;1.248;2022-10-23T14:16:17;9.15;;;1.63;;
51382;SDS011;37475;43.358;1.248;2022-10-23T14:18:47;9.30;;;1.60;;
51382;SDS011;37475;43.358;1.248;2022-10-23T14:21:14;11.50;;;1.63;;
51382;SDS011;37475;43.358;1.248;2022-10-23T14:23:44;11.00;;;2.13;;
51382;SDS011;37475;43.358;1.248;2022-10-23T14:26:11;7.20;;;1.80;;
51382;SDS011;37475;43.358;1.248;2022-10-23T14:28:41;8.60;;;1.77;;
51382;SDS011;37475;43.358;1.248;2022-10-23T14:31:09;6.78;;;1.58;;
51382;SDS011;37475;43.358;1.248;2022-10-23T14:33:38;13.88;;;1.77;;
51382;SDS011;37475;43.358;1.248;2022-10-23T14:36:04;10.05;;;1.70;;
51382;SDS011;37475;43.358;1.248;2022-10-23T14:38:31;8.07;;;1.50;;
51382;SDS011;37475;43.358;1.248;2022-10-23T14:40:58;8.32;;;1.65;;
51382;SDS011;37475;43.358;1.248;2022-10-23T14:43:24;8.43;;;1.75;;
51382;SDS011;37475;43.358;1.248;2022-10-23T14:45:50;9.15;;;1.92;;
51382;SDS011;37475;43.358;1.248;2022-10-23T14:48:16;9.35;;;1.65;;
51382;SDS011;37475;43.358;1.248;2022-10-23T14:50:46;12.10;;;1.73;;
51382;SDS011;37475;43.358;1.248;2022-10-23T14:53:13;7.93;;;1.80;;
51382;SDS011;37475;43.358;1.248;2022-10-23T14:55:40;12.20;;;2.00;;
51382;SDS011;37475;43.358;1.248;2022-10-23T14:58:05;9.07;;;1.70;;
51382;SDS011;37475;43.358;1.248;2022-10-23T15:00:31;9.63;;;1.98;;
51382;SDS011;37475;43.358;1.248;2022-10-23T15:02:57;10.77;;;1.50;;
51382;SDS011;37475;43.358;1.248;2022-10-23T15:05:24;6.68;;;1.20;;
51382;SDS011;37475;43.358;1.248;2022-10-23T15:07:49;4.70;;;1.48;;
51382;SDS011;37475;43.358;1.248;2022-10-23T15:10:15;7.35;;;1.30;;
51382;SDS011;37475;43.358;1.248;2022-10-23T15:12:41;8.43;;;1.30;;
51382;SDS011;37475;43.358;1.248;2022-10-23T15:15:07;6.90;;;1.45;;
51382;SDS011;37475;43.358;1.248;2022-10-23T15:17:34;11.40;;;1.60;;
51382;SDS011;37475;43.358;1.248;2022-10-23T15:20:01;9.05;;;1.30;;
51382;SDS011;37475;43.358;1.248;2022-10-23T15:22:27;6.60;;;1.30;;
51382;SDS011;37475;43.358;1.248;2022-10-23T15:24:53;7.82;;;1.30;;
51382;SDS011;37475;43.358;1.248;2022-10-23T15:27:20;7.25;;;1.10;;
51382;SDS011;37475;43.358;1.248;2022-10-23T15:29:47;8.90;;;1.20;;
51382;SDS011;37475;43.358;1.248;2022-10-23T15:32:12;7.03;;;0.90;;
51382;SDS011;37475;43.358;1.248;2022-10-23T15:34:40;5.10;;;1.05;;
51382;SDS011;37475;43.358;1.248;2022-10-23T15:37:07;5.22;;;1.08;;
51382;SDS011;37475;43.358;1.248;2022-10-23T15:39:34;8.13;;;1.10;;
51382;SDS011;37475;43.358;1.248;2022-10-23T15:42:00;4.53;;;1.00;;
51382;SDS011;37475;43.358;1.248;2022-10-23T15:44:30;4.32;;;0.90;;
51382;SDS011;37475;43.358;1.248;2022-10-23T15:46:57;5.00;;;0.93;;
51382;SDS011;37475;43.358;1.248;2022-10-23T15:49:23;4.10;;;0.68;;
51382;SDS011;37475;43.358;1.248;2022-10-23T15:51:50;4.82;;;0.70;;
51382;SDS011;37475;43.358;1.248;2022-10-23T15:54:17;6.03;;;0.90;;
51382;SDS011;37475;43.358;1.248;2022-10-23T15:56:44;6.80;;;1.15;;
51382;SDS011;37475;43.358;1.248;2022-10-23T15:59:13;5.90;;;0.75;;
51382;SDS011;37475;43.358;1.248;2022-10-23T16:01:40;4.72;;;0.73;;
51382;SDS011;37475;43.358;1.248;2022-10-23T16:04:06;5.05;;;0.80;;
51382;SDS011;37475;43.358;1.248;2022-10-23T16:06:32;8.35;;;1.33;;
51382;SDS011;37475;43.358;1.248;2022-10-23T16:08:58;6.22;;;0.90;;
51382;SDS011;37475;43.358;1.248;2022-10-23T16:11:26;4.30;;;0.73;;
51382;SDS011;37475;43.358;1.248;2022-10-23T16:13:55;3.15;;;0.80;;
51382;SDS011;37475;43.358;1.248;2022-10-23T16:16:22;3.78;;;0.80;;
51382;SDS011;37475;43.358;1.248;2022-10-23T16:18:49;5.80;;;0.93;;
51382;SDS011;37475;43.358;1.248;2022-10-23T16:21:25;7.35;;;0.85;;
51382;SDS011;37475;43.358;1.248;2022-10-23T16:23:55;8.70;;;2.55;;
51382;SDS011;37475;43.358;1.248;2022-10-23T16:26:23;6.68;;;1.00;;
51382;SDS011;37475;43.358;1.248;2022-10-23T16:28:53;6.93;;;1.10;;
51382;SDS011;37475;43.358;1.248;2022-10-23T16:31:22;4.68;;;0.75;;
51382;SDS011;37475;43.358;1.248;2022-10-23T16:33:49;8.60;;;1.05;;
51382;SDS011;37475;43.358;1.248;2022-10-23T16:36:16;4.07;;;1.27;;
51382;SDS011;37475;43.358;1.248;2022-10-23T16:38:42;6.22;;;0.80;;
51382;SDS011;37475;43.358;1.248;2022-10-23T16:41:08;4.65;;;0.80;;
51382;SDS011;37475;43.358;1.248;2022-10-23T16:43:34;4.35;;;0.90;;
51382;SDS011;37475;43.358;1.248;2022-10-23T16:46:13;7.10;;;1.10;;
51382;SDS011;37475;43.358;1.248;2022-10-23T16:48:44;5.13;;;0.88;;
51382;SDS011;37475;43.358;1.248;2022-10-23T16:51:12;6.47;;;0.90;;
51382;SDS011;37475;43.358;1.248;2022-10-23T16:53:40;7.35;;;1.30;;
51382;SDS011;37475;43.358;1.248;2022-10-23T16:56:08;5.80;;;0.93;;
51382;SDS011;37475;43.358;1.248;2022-10-23T16:58:36;4.70;;;1.20;;
51382;SDS011;37475;43.358;1.248;2022-10-23T17:01:18;9.93;;;1.20;;
51382;SDS011;37475;43.358;1.248;2022-10-23T17:03:48;6.40;;;0.95;;
51382;SDS011;37475;43.358;1.248;2022-10-23T17:06:17;4.15;;;0.90;;
51382;SDS011;37475;43.358;1.248;2022-10-23T17:08:49;4.40;;;0.90;;